METAR Data
IDs: Format: Raw Decoded Include TAF

Data at: 0514 UTC 24 Sep 2018

KWVI 240453Z AUTO 06004KT 9SM CLR 12/11 A2988 RMK AO2 SLP118 T01220111 $
KWVI 240353Z AUTO 09003KT 10SM CLR 13/11 A2987 RMK AO2 SLP116 T01280111 $
KWVI 240253Z AUTO 13005KT 10SM CLR 13/12 A2987 RMK AO2 SLP113 T01330117 55002 $
KWVI 240153Z AUTO 14007KT 10SM CLR 14/12 A2987 RMK AO2 SLP113 T01440117 $
KWVI 240053Z AUTO 16008KT 10SM CLR 16/12 A2987 RMK AO2 SLP113 T01610122 $
KWVI 232353Z AUTO 17008KT 10SM CLR 17/12 A2987 RMK AO2 SLP115 T01720122 10211 20156 56011 $
KWVI 232253Z AUTO 18006KT 10SM CLR 18/12 A2988 RMK AO2 SLP117 T01830122 $
KWVI 232153Z AUTO 19008KT 10SM CLR 19/12 A2989 RMK AO2 SLP120 T01940122 $
KWVI 232053Z AUTO 19008KT 10SM CLR 21/11 A2990 RMK AO2 SLP126 T02060111 58015 $
KWVI 231953Z AUTO 18007KT 10SM CLR 19/12 A2992 RMK AO2 SLP131 T01890117 $
KWVI 231853Z AUTO 18005KT 10SM CLR 18/12 A2994 RMK AO2 SLP138 T01830117 $
KWVI 231753Z AUTO 17003KT 10SM CLR 16/11 A2995 RMK AO2 SLP141 T01610111 10161 20100 50004 $
KWVI 231738Z AUTO 15003KT 10SM SCT006 14/11 A2995 RMK AO2 T01440111 $
KWVI 231728Z AUTO VRB03KT 10SM BKN005 14/11 A2995 RMK AO2 T01390111 $
KWVI 231653Z AUTO 00000KT 6SM BR OVC003 11/11 A2996 RMK AO2 SLP145 T01110111 $
KWVI 231639Z AUTO 00000KT 3SM BR OVC002 11/11 A2996 RMK AO2 T01110106 $
KWVI 231635Z AUTO 25003KT 1 1/2SM BR OVC002 11/11 A2996 RMK AO2 VIS 3/4V5 T01110111 $
KWVI 231627Z AUTO 00000KT 3/4SM BR VV002 11/11 A2996 RMK AO2 T01110111 $
KWVI 231601Z AUTO 00000KT 1/4SM FG VV002 11/11 A2995 RMK AO2 T01060106 $
KWVI 231553Z AUTO 00000KT 1/2SM FG VV002 11/11 A2995 RMK AO2 SLP142 T01060106 $
KWVI 231453Z AUTO 00000KT M1/4SM FG VV002 10/10 A2994 RMK AO2 SLP137 T01000100 53009 $
KWVI 231353Z AUTO 00000KT 1/4SM FG VV002 10/10 A2992 RMK AO2 SLP131 T01000100 $
KWVI 231321Z AUTO 00000KT 1/2SM FG VV002 10/10 A2991 RMK AO2 T01000100 $
KWVI 231311Z AUTO 00000KT 1/4SM FG VV002 10/10 A2991 RMK AO2 T01000100 $
KWVI 231253Z AUTO 00000KT 1/2SM FG VV002 11/11 A2991 RMK AO2 SLP128 T01060106 $
KWVI 231251Z AUTO 00000KT 1/2SM FG VV002 11/11 A2991 RMK AO2 $
KWVI 231241Z AUTO 00000KT 1/4SM FG VV002 10/10 A2991 RMK AO2 T01000100 $
KWVI 231153Z AUTO 00000KT 1/2SM FG VV002 11/11 A2991 RMK AO2 SLP126 T01060106 10122 20106 58003 $
KWVI 231106Z AUTO 00000KT 3/4SM BR OVC002 11/11 A2992 RMK AO2 T01110111 $
KWVI 231053Z AUTO 00000KT 1 3/4SM BR OVC002 11/11 A2992 RMK AO2 SLP130 T01110111 $
KWVI 231048Z AUTO 00000KT 2SM BR OVC002 11/11 A2992 RMK AO2 $
KWVI 231032Z AUTO 00000KT 1 3/4SM BR OVC002 11/11 A2992 RMK AO2 T01110111 $
KWVI 230953Z AUTO 00000KT 4SM BR OVC002 12/11 A2992 RMK AO2 SLP130 T01170111 $
KWVI 230935Z AUTO 00000KT 2SM BR OVC003 12/11 A2992 RMK AO2 T01170111 $
KWVI 230853Z AUTO 00000KT 5SM BR OVC004 12/11 A2992 RMK AO2 SLP132 T01170111 58003 $
KWVI 230818Z AUTO 00000KT 5SM BR OVC004 12/11 A2992 RMK AO2 T01170111 $
KWVI 230753Z AUTO 00000KT 6SM BR OVC005 12/11 A2993 RMK AO2 SLP134 T01170111 401940117 $
KWVI 230653Z AUTO 00000KT 7SM OVC005 12/11 A2993 RMK AO2 SLP135 T01220111 $
KWVI 230622Z AUTO 00000KT 7SM OVC006 12/11 A2993 RMK AO2 T01220111 $
KWVI 230553Z AUTO 00000KT 7SM OVC005 12/12 A2993 RMK AO2 SLP135 T01220117 10150 20122 58001 $
KWVI 230539Z AUTO 00000KT 7SM OVC005 12/12 A2993 RMK AO2 T01220117 $
KWVI 230453Z AUTO 00000KT 9SM OVC006 13/12 A2994 RMK AO2 SLP137 T01330117 $
KWVI 230353Z AUTO 00000KT 10SM OVC006 13/12 A2993 RMK AO2 SLP136 T01280117 $
KWVI 230253Z AUTO 00000KT 10SM OVC006 12/12 A2993 RMK AO2 SLP136 T01220117 58006 $
KWVI 230242Z AUTO 27003KT 10SM OVC006 13/12 A2994 RMK AO2 T01280117 $
KWVI 230153Z AUTO 24004KT 9SM OVC005 12/12 A2994 RMK AO2 SLP138 T01220117 $
KWVI 230137Z AUTO 21004KT 10SM OVC005 13/12 A2994 RMK AO2 T01280117 $
KWVI 230053Z AUTO 26006KT 10SM BKN006 13/11 A2995 RMK AO2 SLP141 T01330111 $
KWVI 222353Z AUTO 23007KT 10SM FEW008 14/12 A2995 RMK AO2 SLP142 T01440117 10194 20139 56006 $
KWVI 222344Z AUTO 23007KT 10SM FEW008 14/12 A2995 RMK AO2 T01440117 $
KWVI 222253Z AUTO 22008KT 10SM CLR 16/11 A2996 RMK AO2 SLP143 T01610111 $
KWVI 222153Z AUTO 24006KT 10SM CLR 16/11 A2996 RMK AO2 SLP146 T01560111 $
KWVI 222053Z AUTO 21008KT 10SM CLR 18/12 A2997 RMK AO2 SLP148 T01830117 58014 $
KWVI 221953Z AUTO 26007KT 10SM CLR 18/12 A2999 RMK AO2 SLP154 T01830122 $
KWVI 221853Z AUTO 21007KT 10SM CLR 18/12 A3000 RMK AO2 SLP157 T01830122 $
KWVI 221808Z AUTO VRB03KT 10SM SCT008 17/12 A3001 RMK AO2 T01670122 $
KWVI 221753Z AUTO VRB03KT 9SM BKN007 16/12 A3001 RMK AO2 SLP162 T01560122 10161 20117 50005 $
KWVI 221743Z AUTO VRB04KT 9SM OVC007 16/12 A3001 RMK AO2 T01560122 $
KWVI 221732Z AUTO 00000KT 7SM OVC005 14/12 A3001 RMK AO2 CIG 004V008 T01440122 $